createdAt,value
2022-10-17T00:01:13.469Z,74.16
2022-10-17T00:03:42.794Z,74.04
2022-10-17T00:06:13.708Z,74.14
2022-10-17T00:08:43.421Z,73.83
2022-10-17T00:11:17.729Z,74.10
2022-10-17T00:13:46.500Z,74.16
2022-10-17T00:16:15.774Z,73.92
2022-10-17T00:18:44.126Z,73.85
2022-10-17T00:21:17.591Z,74.19
2022-10-17T00:23:46.358Z,74.18
2022-10-17T00:26:16.746Z,74.07
2022-10-17T00:28:47.968Z,74.13
2022-10-17T00:31:18.184Z,74.10
2022-10-17T00:33:47.278Z,74.01
2022-10-17T00:36:17.260Z,73.72
2022-10-17T00:38:48.087Z,73.66
2022-10-17T00:41:21.204Z,74.00
2022-10-17T00:43:55.772Z,73.91
2022-10-17T00:46:26.519Z,73.99
2022-10-17T00:48:56.894Z,74.01
2022-10-17T00:51:32.251Z,73.83
2022-10-17T00:54:02.387Z,73.91
2022-10-17T00:56:32.876Z,73.99
2022-10-17T00:59:01.545Z,73.81
2022-10-17T01:01:30.089Z,73.85
2022-10-17T01:03:58.480Z,73.86
2022-10-17T01:06:26.919Z,73.65
2022-10-17T01:08:55.812Z,73.80
2022-10-17T01:11:39.840Z,73.92
2022-10-17T01:14:16.556Z,73.59
2022-10-17T01:16:53.178Z,74.01
2022-10-17T01:19:39.801Z,74.11
2022-10-17T01:22:14.044Z,74.11
2022-10-17T01:25:17.129Z,73.96
2022-10-17T01:27:57.812Z,74.27
2022-10-17T01:30:45.932Z,74.56
2022-10-17T01:33:23.863Z,74.50
2022-10-17T01:35:56.113Z,74.06
2022-10-17T01:38:30.815Z,74.13
2022-10-17T01:41:04.907Z,74.07
2022-10-17T01:43:39.391Z,74.08
2022-10-17T01:46:14.699Z,73.85
2022-10-17T01:48:47.015Z,74.25
2022-10-17T01:51:20.407Z,73.99
2022-10-17T01:53:54.583Z,74.51
2022-10-17T01:56:27.468Z,74.44
2022-10-17T01:59:02.214Z,74.54
2022-10-17T02:01:32.135Z,74.73
2022-10-17T02:04:03.844Z,75.11
2022-10-17T02:06:36.376Z,74.90
2022-10-17T02:09:18.408Z,75.13
2022-10-17T02:11:56.496Z,74.86
2022-10-17T02:14:38.891Z,74.43
2022-10-17T02:17:15.979Z,74.27
2022-10-17T02:19:57.097Z,74.55
2022-10-17T02:22:36.771Z,74.47
2022-10-17T02:25:13.394Z,74.64
2022-10-17T02:27:49.327Z,74.73
2022-10-17T02:30:28.533Z,74.65
2022-10-17T02:33:01.068Z,74.85
2022-10-17T02:35:34.215Z,74.53
2022-10-17T02:38:05.098Z,74.74
2022-10-17T02:40:34.375Z,74.51
2022-10-17T02:43:02.827Z,74.27
2022-10-17T02:45:35.962Z,74.49
2022-10-17T02:48:07.570Z,74.38
2022-10-17T02:50:47.778Z,74.22
2022-10-17T02:53:21.056Z,74.47
2022-10-17T02:55:55.206Z,74.37
2022-10-17T02:58:29.296Z,74.06
2022-10-17T03:00:58.202Z,74.29
2022-10-17T03:03:30.047Z,74.36
2022-10-17T03:05:59.739Z,74.71
2022-10-17T03:08:28.308Z,74.72
2022-10-17T03:10:56.702Z,74.57
2022-10-17T03:13:25.532Z,74.63
2022-10-17T03:15:53.867Z,74.61
2022-10-17T03:18:22.204Z,74.38
2022-10-17T03:20:50.699Z,74.39
2022-10-17T03:23:21.060Z,74.36
2022-10-17T03:25:49.373Z,74.37
2022-10-17T03:28:17.792Z,74.19
2022-10-17T03:30:46.108Z,74.22
2022-10-17T03:33:14.436Z,73.85
2022-10-17T03:35:42.788Z,73.92
2022-10-17T03:38:11.722Z,73.74
2022-10-17T03:40:41.408Z,74.20
2022-10-17T03:43:11.424Z,73.80
2022-10-17T03:45:39.794Z,74.04
2022-10-17T03:48:08.265Z,73.98
2022-10-17T03:50:36.624Z,73.74
2022-10-17T03:53:04.995Z,73.72
2022-10-17T03:55:33.773Z,73.95
2022-10-17T03:58:03.539Z,73.71
2022-10-17T04:00:31.821Z,73.57
2022-10-17T04:03:00.336Z,73.93
2022-10-17T04:05:28.649Z,73.73
2022-10-17T04:07:58.766Z,73.56
2022-10-17T04:10:29.663Z,73.99
2022-10-17T04:12:58.024Z,73.94
2022-10-17T04:15:27.887Z,73.79
2022-10-17T04:17:56.327Z,73.58
2022-10-17T04:20:24.919Z,73.54
2022-10-17T04:22:53.320Z,73.70
2022-10-17T04:25:21.755Z,73.64
2022-10-17T04:27:50.125Z,73.24
2022-10-17T04:30:18.978Z,73.53
2022-10-17T04:32:48.677Z,73.33
2022-10-17T04:35:17.224Z,73.26
2022-10-17T04:37:45.584Z,73.24
2022-10-17T04:40:14.679Z,72.88
2022-10-17T04:42:43.007Z,73.15
2022-10-17T04:45:11.768Z,73.27
2022-10-17T04:47:40.086Z,73.27
2022-10-17T04:50:10.465Z,73.50
2022-10-17T04:52:38.798Z,73.28
2022-10-17T04:55:07.894Z,73.11
2022-10-17T04:57:36.887Z,72.99
2022-10-17T05:00:06.241Z,73.02
2022-10-17T05:02:34.606Z,73.12
2022-10-17T05:05:04.238Z,73.28
2022-10-17T05:07:33.959Z,72.91
2022-10-17T05:10:02.467Z,72.88
2022-10-17T05:12:31.154Z,73.23
2022-10-17T05:14:59.697Z,73.48
2022-10-17T05:17:28.139Z,73.70
2022-10-17T05:19:56.491Z,73.47
2022-10-17T05:22:24.835Z,73.72
2022-10-17T05:24:54.759Z,73.99
2022-10-17T05:27:23.150Z,74.14
2022-10-17T05:29:51.463Z,74.45
2022-10-17T05:32:19.841Z,74.36
2022-10-17T05:34:48.262Z,74.71
2022-10-17T05:37:16.575Z,74.37
2022-10-17T05:39:49.153Z,74.65
2022-10-17T05:42:21.192Z,74.95
2022-10-17T05:44:49.551Z,75.27
2022-10-17T05:47:18.436Z,75.63
2022-10-17T05:49:51.474Z,75.32
2022-10-17T05:52:20.984Z,75.31
2022-10-17T05:54:49.301Z,74.98
2022-10-17T05:57:17.775Z,75.09
2022-10-17T05:59:47.408Z,74.95
2022-10-17T06:02:16.477Z,74.90
2022-10-17T06:04:46.187Z,74.63
2022-10-17T06:07:15.203Z,74.23
2022-10-17T06:09:43.849Z,74.41
2022-10-17T06:12:12.292Z,74.17
2022-10-17T06:14:40.587Z,74.36
2022-10-17T06:17:15.583Z,74.24
2022-10-17T06:19:45.285Z,74.05
2022-10-17T06:22:13.731Z,73.77
2022-10-17T06:24:42.392Z,74.19
2022-10-17T06:27:12.104Z,73.72
2022-10-17T06:29:40.873Z,74.14
2022-10-17T06:32:14.124Z,73.58
2022-10-17T06:34:43.712Z,73.93
2022-10-17T06:37:12.238Z,73.60
2022-10-17T06:39:40.724Z,73.42
2022-10-17T06:42:09.140Z,73.50
2022-10-17T06:44:37.580Z,73.41
2022-10-17T06:47:05.963Z,73.20
2022-10-17T06:49:35.695Z,72.99
2022-10-17T06:52:04.080Z,73.46
2022-10-17T06:54:32.732Z,73.22
2022-10-17T06:57:01.037Z,73.05
2022-10-17T06:59:29.431Z,73.24
2022-10-17T07:01:57.743Z,73.25
2022-10-17T07:04:26.175Z,73.68
2022-10-17T07:06:55.990Z,73.82
2022-10-17T07:09:25.032Z,73.89
2022-10-17T07:11:53.435Z,74.12
2022-10-17T07:14:21.775Z,73.83
2022-10-17T07:16:50.135Z,73.82
2022-10-17T07:19:18.501Z,74.22
2022-10-17T07:21:47.399Z,74.15
2022-10-17T07:24:17.360Z,74.33
2022-10-17T07:26:45.789Z,74.79
2022-10-17T07:29:14.155Z,75.08
2022-10-17T07:31:42.487Z,75.31
2022-10-17T07:34:10.863Z,74.95
2022-10-17T07:36:39.297Z,74.83
2022-10-17T07:39:08.021Z,74.64
2022-10-17T07:41:37.811Z,74.90
2022-10-17T07:44:06.825Z,74.36
2022-10-17T07:46:35.376Z,74.70
2022-10-17T07:49:03.836Z,74.30
2022-10-17T07:51:32.274Z,74.62
2022-10-17T07:54:00.863Z,74.55
2022-10-17T07:56:29.694Z,74.60
2022-10-17T07:59:01.681Z,74.82
2022-10-17T08:01:32.305Z,74.96
2022-10-17T08:04:00.656Z,75.17
2022-10-17T08:06:28.988Z,75.48
2022-10-17T08:08:58.787Z,75.45
2022-10-17T08:11:27.563Z,75.55
2022-10-17T08:13:55.915Z,75.79
2022-10-17T08:16:25.612Z,75.48
2022-10-17T08:18:53.991Z,75.33
2022-10-17T08:21:22.337Z,75.29
2022-10-17T08:23:50.694Z,74.92
2022-10-17T08:26:20.058Z,74.71
2022-10-17T08:28:48.724Z,74.34
2022-10-17T08:31:20.049Z,73.74
2022-10-17T08:33:51.356Z,73.54
2022-10-17T08:36:22.500Z,73.37
2022-10-17T08:38:53.047Z,73.13
2022-10-17T08:41:38.384Z,72.80
2022-10-17T08:44:16.006Z,72.43
2022-10-17T08:46:48.356Z,71.94
2022-10-17T08:49:26.468Z,71.48
2022-10-17T08:52:00.033Z,71.54
2022-10-17T08:54:39.381Z,71.20
2022-10-17T08:57:12.877Z,71.08
2022-10-17T08:59:41.315Z,70.93
2022-10-17T09:02:29.778Z,70.45
2022-10-17T09:05:35.914Z,69.98
2022-10-17T09:08:18.677Z,70.23
2022-10-17T09:10:56.275Z,70.01
2022-10-17T09:13:37.857Z,69.60
2022-10-17T09:16:20.706Z,69.54
2022-10-17T09:18:57.684Z,69.38
2022-10-17T09:21:37.624Z,69.04
2022-10-17T09:24:15.829Z,69.03
2022-10-17T09:26:46.894Z,68.71
2022-10-17T09:29:23.539Z,68.46
2022-10-17T09:31:59.501Z,68.17
2022-10-17T09:34:30.649Z,68.01
2022-10-17T09:37:02.181Z,68.00
2022-10-17T09:39:32.099Z,67.67
2022-10-17T09:42:03.707Z,67.42
2022-10-17T09:44:33.804Z,67.49
2022-10-17T09:47:27.080Z,67.11
2022-10-17T09:49:55.523Z,67.27
2022-10-17T09:52:29.803Z,66.82
2022-10-17T09:55:02.831Z,66.94
2022-10-17T09:57:55.747Z,66.74
2022-10-17T10:00:25.981Z,67.13
2022-10-17T10:03:10.611Z,66.51
2022-10-17T10:05:39.010Z,66.92
2022-10-17T10:08:16.086Z,66.45
2022-10-17T10:10:45.251Z,66.31
2022-10-17T10:13:21.400Z,66.32
2022-10-17T10:15:51.602Z,66.06
2022-10-17T10:18:32.476Z,65.79
2022-10-17T10:21:07.635Z,65.71
2022-10-17T10:23:40.059Z,65.46
2022-10-17T10:26:26.774Z,64.40
2022-10-17T10:28:58.902Z,64.65
2022-10-17T10:31:30.619Z,64.07
2022-10-17T10:34:02.611Z,64.06
2022-10-17T10:36:48.661Z,63.30
2022-10-17T10:39:49.812Z,63.39
2022-10-17T10:42:22.915Z,63.57
2022-10-17T10:44:52.847Z,63.38
2022-10-17T10:47:23.871Z,63.10
2022-10-17T10:49:54.195Z,62.59
2022-10-17T10:52:31.688Z,61.97
2022-10-17T10:55:15.475Z,61.65
2022-10-17T10:57:46.105Z,61.71
2022-10-17T11:00:20.862Z,61.26
2022-10-17T11:03:01.890Z,61.09
2022-10-17T11:05:41.275Z,61.02
2022-10-17T11:08:21.247Z,60.82
2022-10-17T11:11:03.088Z,60.77
2022-10-17T11:13:34.999Z,61.18
2022-10-17T11:16:15.634Z,60.91
2022-10-17T11:18:49.106Z,60.48
2022-10-17T11:21:22.046Z,60.08
2022-10-17T11:23:59.807Z,59.75
2022-10-17T11:26:33.352Z,59.32
2022-10-17T11:29:06.852Z,58.94
2022-10-17T11:31:39.748Z,58.43
2022-10-17T11:34:19.454Z,57.89
2022-10-17T11:36:59.422Z,57.32
2022-10-17T11:39:33.419Z,56.79
2022-10-17T11:42:08.866Z,56.54
2022-10-17T11:44:38.764Z,56.27
2022-10-17T11:47:15.547Z,55.77
2022-10-17T11:49:51.489Z,55.51
2022-10-17T11:52:54.878Z,55.09
2022-10-17T11:55:23.611Z,54.78
2022-10-17T11:58:14.347Z,53.58
2022-10-17T12:00:53.639Z,54.03
2022-10-17T12:03:41.353Z,53.77
2022-10-17T12:06:18.996Z,53.77
2022-10-17T12:08:59.508Z,54.08
2022-10-17T12:11:41.860Z,53.54
2022-10-17T12:14:40.744Z,53.24
2022-10-17T12:17:29.544Z,53.72
2022-10-17T12:20:30.580Z,53.35
2022-10-17T12:23:19.355Z,53.49
2022-10-17T12:25:53.725Z,53.23
2022-10-17T12:28:29.122Z,53.04
2022-10-17T12:31:02.475Z,52.54
2022-10-17T12:33:36.736Z,52.72
2022-10-17T12:36:49.015Z,52.62
2022-10-17T12:39:51.355Z,52.67
2022-10-17T12:42:46.719Z,52.19
2022-10-17T12:45:49.975Z,52.22
2022-10-17T12:48:55.375Z,51.64
2022-10-17T12:51:41.215Z,52.17
2022-10-17T12:54:13.814Z,52.29
2022-10-17T12:56:44.250Z,52.07
2022-10-17T12:59:17.810Z,51.55
2022-10-17T13:01:49.762Z,51.25
2022-10-17T13:04:19.646Z,50.63
2022-10-17T13:06:53.989Z,50.54
2022-10-17T13:09:28.627Z,50.57
2022-10-17T13:11:59.555Z,49.70
2022-10-17T13:14:29.951Z,49.83
2022-10-17T13:17:00.965Z,49.56
2022-10-17T13:19:32.320Z,49.27
2022-10-17T13:22:07.093Z,49.27
2022-10-17T13:24:38.136Z,48.97
2022-10-17T13:27:08.587Z,48.90
2022-10-17T13:29:44.972Z,48.88
2022-10-17T13:32:13.712Z,48.36
2022-10-17T13:34:42.164Z,48.61
2022-10-17T13:37:16.564Z,48.09
2022-10-17T13:40:00.302Z,47.85
2022-10-17T13:42:40.496Z,47.63
2022-10-17T13:45:20.166Z,47.02
2022-10-17T13:47:48.980Z,47.20
2022-10-17T13:50:43.479Z,46.80
2022-10-17T13:53:30.399Z,46.25
2022-10-17T13:56:26.922Z,46.88
2022-10-17T13:58:52.996Z,46.78
2022-10-17T14:01:23.250Z,46.90
2022-10-17T14:04:02.140Z,46.89
2022-10-17T14:06:45.106Z,46.61
2022-10-17T14:09:23.355Z,46.82
2022-10-17T14:12:02.452Z,46.78
2022-10-17T14:14:46.230Z,46.65
2022-10-17T14:17:25.987Z,46.74
2022-10-17T14:20:14.147Z,46.78
2022-10-17T14:22:50.476Z,46.62
2022-10-17T14:25:32.045Z,46.23
2022-10-17T14:28:08.060Z,46.30
2022-10-17T14:30:55.653Z,46.53
2022-10-17T14:33:27.900Z,46.70
2022-10-17T14:35:58.607Z,46.83
2022-10-17T14:38:28.853Z,46.48
2022-10-17T14:41:23.580Z,46.60
2022-10-17T14:43:55.828Z,46.44
2022-10-17T14:46:25.113Z,46.69
2022-10-17T14:48:56.130Z,47.07
2022-10-17T14:51:24.724Z,47.13
2022-10-17T14:54:05.485Z,47.03
2022-10-17T14:56:42.428Z,47.10
2022-10-17T14:59:12.603Z,47.15
2022-10-17T15:01:46.542Z,47.09
2022-10-17T15:04:15.184Z,47.23
2022-10-17T15:06:43.833Z,47.33
2022-10-17T15:09:14.168Z,47.16
2022-10-17T15:11:44.135Z,47.13
2022-10-17T15:14:12.549Z,47.16
2022-10-17T15:16:40.876Z,47.36
2022-10-17T15:19:10.639Z,47.15
2022-10-17T15:21:43.230Z,47.08
2022-10-17T15:24:15.087Z,47.00
2022-10-17T15:26:44.990Z,46.99
2022-10-17T15:29:16.654Z,47.33
2022-10-17T15:31:45.416Z,46.93
2022-10-17T15:34:13.754Z,47.28
2022-10-17T15:36:43.896Z,47.09
2022-10-17T15:39:12.284Z,47.37
2022-10-17T15:41:40.630Z,47.52
2022-10-17T15:44:10.748Z,47.67
2022-10-17T15:46:41.959Z,47.80
2022-10-17T15:49:13.990Z,48.07
2022-10-17T15:51:42.588Z,48.46
2022-10-17T15:56:54.937Z,48.66
2022-10-17T15:59:35.892Z,48.93
2022-10-17T16:02:04.427Z,49.19
2022-10-17T16:04:32.739Z,49.86
2022-10-17T16:07:01.155Z,50.78
2022-10-17T16:09:30.036Z,51.67
2022-10-17T16:11:58.448Z,52.31
2022-10-17T16:14:28.355Z,52.68
2022-10-17T16:16:56.776Z,53.13
2022-10-17T16:19:27.159Z,53.68
2022-10-17T16:22:00.844Z,54.21
2022-10-17T16:24:32.619Z,54.29
2022-10-17T16:27:00.939Z,54.82
2022-10-17T16:29:30.701Z,55.37
2022-10-17T16:31:59.000Z,55.76
2022-10-17T16:34:29.261Z,56.35
2022-10-17T16:36:57.631Z,56.63
2022-10-17T16:41:59.255Z,57.29
2022-10-17T16:44:27.750Z,57.57
2022-10-17T16:46:57.432Z,58.16
2022-10-17T16:49:25.847Z,58.31
2022-10-17T16:51:54.220Z,58.54
2022-10-17T16:54:22.571Z,59.03
2022-10-17T16:56:50.951Z,59.46
2022-10-17T16:59:19.351Z,59.55
2022-10-17T17:01:47.713Z,60.01
2022-10-17T17:04:17.928Z,60.51
2022-10-17T17:06:46.349Z,60.48
2022-10-17T17:09:14.871Z,60.58
2022-10-17T17:11:43.368Z,60.93
2022-10-17T17:14:11.987Z,61.22
2022-10-17T17:16:40.390Z,61.73
2022-10-17T17:19:12.105Z,62.06
2022-10-17T17:21:43.190Z,62.40
2022-10-17T17:24:11.548Z,62.37
2022-10-17T17:26:41.185Z,62.63
2022-10-17T17:29:11.643Z,63.17
2022-10-17T17:31:40.152Z,63.43
2022-10-17T17:34:09.657Z,63.54
2022-10-17T17:36:41.940Z,63.58
2022-10-17T17:39:12.792Z,63.97
2022-10-17T17:41:42.748Z,64.00
2022-10-17T17:44:16.444Z,64.35
2022-10-17T17:46:46.440Z,64.35
2022-10-17T17:49:15.239Z,64.77
2022-10-17T17:51:46.718Z,65.39
2022-10-17T17:54:16.161Z,65.44
2022-10-17T17:56:44.606Z,65.55
2022-10-17T17:59:14.536Z,65.58
2022-10-17T18:01:44.029Z,65.58
2022-10-17T18:04:12.495Z,65.25
2022-10-17T18:06:41.371Z,65.43
2022-10-17T18:09:11.414Z,65.35
2022-10-17T18:11:39.948Z,65.33
2022-10-17T18:14:11.589Z,65.44
2022-10-17T18:16:40.121Z,65.42
2022-10-17T18:19:09.987Z,65.32
2022-10-17T18:21:38.948Z,65.39
2022-10-17T18:24:08.296Z,65.25
2022-10-17T18:26:38.508Z,65.21
2022-10-17T18:29:07.148Z,65.16
2022-10-17T18:31:36.472Z,65.22
2022-10-17T18:34:06.297Z,65.23
2022-10-17T18:36:37.428Z,65.40
2022-10-17T18:39:06.576Z,65.42
2022-10-17T18:41:35.185Z,65.51
2022-10-17T18:44:05.243Z,65.69
2022-10-17T18:46:36.577Z,65.52
2022-10-17T18:49:05.489Z,65.55
2022-10-17T18:51:33.928Z,65.57
2022-10-17T18:54:03.030Z,65.61
2022-10-17T18:56:32.299Z,65.55
2022-10-17T18:59:01.491Z,65.42
2022-10-17T19:01:31.582Z,65.25
2022-10-17T19:04:00.545Z,65.44
2022-10-17T19:06:32.207Z,65.34
2022-10-17T19:09:01.350Z,65.29
2022-10-17T19:11:31.866Z,65.27
2022-10-17T19:14:01.498Z,65.29
2022-10-17T19:16:33.575Z,65.36
2022-10-17T19:19:04.777Z,65.64
2022-10-17T19:21:33.496Z,65.64
2022-10-17T19:24:04.295Z,65.76
2022-10-17T19:26:35.673Z,65.96
2022-10-17T19:29:05.191Z,65.90
2022-10-17T19:31:36.848Z,65.92
2022-10-17T19:34:05.731Z,65.88
2022-10-17T19:36:36.548Z,65.88
2022-10-17T19:39:06.839Z,65.83
2022-10-17T19:41:36.359Z,66.03
2022-10-17T19:44:04.912Z,65.97
2022-10-17T19:46:35.132Z,66.39
2022-10-17T19:49:04.211Z,66.46
2022-10-17T19:51:33.443Z,66.59
2022-10-17T19:54:03.556Z,66.60
2022-10-17T19:56:33.703Z,66.63
2022-10-17T19:59:02.520Z,66.45
2022-10-17T20:01:34.018Z,66.76
2022-10-17T20:04:03.827Z,66.88
2022-10-17T20:06:33.213Z,67.01
2022-10-17T20:09:01.668Z,66.90
2022-10-17T20:11:31.101Z,67.17
2022-10-17T20:14:02.182Z,67.27
2022-10-17T20:16:32.548Z,67.27
2022-10-17T20:19:07.531Z,67.32
2022-10-17T20:21:37.117Z,67.48
2022-10-17T20:24:08.069Z,67.36
2022-10-17T20:26:38.638Z,67.37
2022-10-17T20:29:12.166Z,67.32
2022-10-17T20:31:42.355Z,67.60
2022-10-17T20:34:14.840Z,67.71
2022-10-17T20:36:43.333Z,67.79
2022-10-17T20:39:13.089Z,67.76
2022-10-17T20:41:41.472Z,67.79
2022-10-17T20:44:10.224Z,67.68
2022-10-17T20:47:00.603Z,67.60
2022-10-17T20:49:29.729Z,67.41
2022-10-17T20:51:58.515Z,67.47
2022-10-17T20:54:28.324Z,67.61
2022-10-17T20:56:58.720Z,67.68
2022-10-17T20:59:29.497Z,67.84
2022-10-17T21:01:58.041Z,67.94
2022-10-17T21:04:45.334Z,68.28
2022-10-17T21:07:16.026Z,68.56
2022-10-17T21:09:45.414Z,68.41
2022-10-17T21:12:21.604Z,68.73
2022-10-17T21:14:59.936Z,69.08
2022-10-17T21:17:28.416Z,69.06
2022-10-17T21:19:56.968Z,69.32
2022-10-17T21:22:27.354Z,69.72
2022-10-17T21:24:55.873Z,69.89
2022-10-17T21:27:24.253Z,69.98
2022-10-17T21:29:52.625Z,70.25
2022-10-17T21:32:33.390Z,70.25
2022-10-17T21:35:09.477Z,69.98
2022-10-17T21:37:39.740Z,70.19
2022-10-17T21:40:09.625Z,70.50
2022-10-17T21:42:38.082Z,71.28
2022-10-17T21:45:15.440Z,71.08
2022-10-17T21:48:10.824Z,71.15
2022-10-17T21:50:33.226Z,70.90
2022-10-17T21:53:03.005Z,71.12
2022-10-17T21:55:31.351Z,71.37
2022-10-17T21:57:59.689Z,71.67
2022-10-17T22:00:28.025Z,71.71
2022-10-17T22:02:56.369Z,71.95
2022-10-17T22:05:24.931Z,71.67
2022-10-17T22:07:53.263Z,71.64
2022-10-17T22:10:22.948Z,71.61
2022-10-17T22:12:51.267Z,71.55
2022-10-17T22:15:19.572Z,71.20
2022-10-17T22:17:47.895Z,71.42
2022-10-17T22:20:16.312Z,71.38
2022-10-17T22:22:44.639Z,71.37
2022-10-17T22:25:12.981Z,71.45
2022-10-17T22:27:42.662Z,71.44
2022-10-17T22:30:12.077Z,71.30
2022-10-17T22:32:40.422Z,71.47
2022-10-17T22:35:09.619Z,71.92
2022-10-17T22:37:38.030Z,71.55
2022-10-17T22:40:07.676Z,71.46
2022-10-17T22:42:36.547Z,71.69
2022-10-17T22:45:07.029Z,71.54
2022-10-17T22:47:35.412Z,71.34
2022-10-17T22:50:03.771Z,71.07
2022-10-17T22:52:32.626Z,70.46
2022-10-17T22:55:02.595Z,70.67
2022-10-17T22:57:30.935Z,70.04
2022-10-17T22:59:59.301Z,69.90
2022-10-17T23:02:29.253Z,70.22
2022-10-17T23:04:57.837Z,69.96
2022-10-17T23:07:26.643Z,69.89
2022-10-17T23:09:55.431Z,69.97
2022-10-17T23:12:23.924Z,70.29
2022-10-17T23:14:52.351Z,69.78
2022-10-17T23:17:20.683Z,70.20
2022-10-17T23:19:52.919Z,70.03
2022-10-17T23:22:23.912Z,69.99
2022-10-17T23:24:52.503Z,70.42
2022-10-17T23:27:20.905Z,70.46
2022-10-17T23:29:49.295Z,70.30
2022-10-17T23:32:19.999Z,70.44
2022-10-17T23:34:48.394Z,70.24
2022-10-17T23:37:18.359Z,70.22
2022-10-17T23:39:47.795Z,70.42
2022-10-17T23:42:16.135Z,70.03
2022-10-17T23:44:44.492Z,70.33
2022-10-17T23:47:13.016Z,70.26
2022-10-17T23:49:41.379Z,69.89
2022-10-17T23:52:09.779Z,69.79
2022-10-17T23:54:39.461Z,69.69
2022-10-17T23:57:07.848Z,69.90
2022-10-17T23:59:36.240Z,69.73
